Subpeak Weather

  • Time Avg. Air Temp Dew Point Avg. Rel Humidity Avg. 2 Min Wind Speed Max Gust Velocity MGV Time MGV Direction Avg. Spot Wind Velocity
    2017-02-20 02:55:00-9° C-10° C90%28 km/h37 km/h02:52:10E26 km/h
    01:50:00-9° C-10° C90%19 km/h28 km/h01:48:10SE21 km/h
    00:50:00-9° C-10° C90%20 km/h22 km/h00:46:00SE20 km/h
    23:50:00-9° C-10° C90%17 km/h21 km/h23:47:10S17 km/h
    22:50:00-9° C-10° C90%17 km/h22 km/h22:46:00SE18 km/h
    21:50:00-8° C-10° C91%21 km/h26 km/h21:47:10SE20 km/h
    20:50:00-8° C-9° C91%18 km/h21 km/h20:50:10SE17 km/h
    19:50:00-8° C-10° C91%21 km/h24 km/h19:49:10SE21 km/h
    18:50:00-8° C-10° C91%23 km/h26 km/h18:48:10S23 km/h
    17:50:00-8° C-9° C91%24 km/h25 km/h17:49:10S24 km/h
    16:50:00-8° C-9° C91%20 km/h25 km/h16:48:10SE21 km/h
    15:50:00-8° C-9° C91%20 km/h26 km/h15:48:10SE20 km/h
    14:50:00-7° C-8° C92%15 km/h22 km/h14:49:10SE16 km/h
    13:50:00-7° C-8° C92%17 km/h21 km/h13:50:10SE17 km/h
    12:50:00-7° C-9° C91%25 km/h30 km/h12:46:00SE25 km/h
    11:50:00-8° C-9° C91%34 km/h39 km/h11:46:00S35 km/h
    10:50:00-8° C-9° C92%22 km/h31 km/h10:47:10SE22 km/h
    09:50:00-7° C-8° C92%21 km/h28 km/h09:49:10SE21 km/h
    08:50:00-8° C-9° C91%20 km/h26 km/h08:50:10SE20 km/h
    07:50:00-8° C-9° C91%12 km/h14 km/h07:48:10SE12 km/h
    06:50:00-8° C-9° C91%11 km/h13 km/h06:49:10SE10 km/h
    05:50:00-8° C-9° C91%11 km/h12 km/h05:49:10SE11 km/h
    04:50:00-7° C-8° C92%12 km/h14 km/h04:48:10SE12 km/h
    03:50:00-7° C-8° C92%15 km/h17 km/h03:50:10SE15 km/h
  • Time Avg. Air Temp Dew Point Avg. Rel Humidity Avg. 2 Min Wind Speed Max Gust Velocity MGV Time MGV Direction Avg. Spot Wind Velocity
    2017-02-20 02:55:00-9° C-10° C90%28 km/h37 km/h02:52:10E26 km/h
    02:50:00-9° C-10° C90%31 km/h38 km/h02:49:10SE28 km/h
    02:45:00-9° C-10° C90%24 km/h38 km/h02:41:00SE26 km/h
    02:40:00-9° C-10° C90%25 km/h32 km/h02:40:10SE20 km/h
    02:35:00-9° C-10° C90%21 km/h27 km/h02:35:10SE21 km/h
    02:30:00-9° C-10° C90%18 km/h30 km/h02:28:10S19 km/h
    02:25:00-9° C-10° C90%17 km/h26 km/h02:21:00SE19 km/h
    02:20:00-9° C-10° C90%23 km/h29 km/h02:18:10SE24 km/h
    02:15:00-9° C-10° C90%22 km/h26 km/h02:14:10SE23 km/h
    02:10:00-9° C-10° C90%24 km/h26 km/h02:10:10SE23 km/h
    02:05:00-9° C-10° C90%24 km/h29 km/h02:04:10SE25 km/h
    01:55:00-9° C-10° C90%25 km/h35 km/h01:53:10SE27 km/h
    01:50:00-9° C-10° C90%19 km/h28 km/h01:48:10SE21 km/h